Main page
Satellite images Climate Cyclones Lightning AirportsFAQ Languages Contact Newsletter About
Weather : Europe Africa North America South America Asia Australia-Oceania Others

vientiane-la, Vientiane, Wattay International Airport

48940

latitude: , longitude: Laos, elevation: 17-57N m


METAR: VLVT 140930Z 09010KT 9999 FEW020 FEW100 30/18 Q1013 NOSIG